createdAt,value
2023-11-23T00:00:41.516Z,-2.90
2023-11-23T00:03:43.848Z,-2.80
2023-11-23T00:06:25.918Z,-2.80
2023-11-23T00:09:10.568Z,-2.70
2023-11-23T00:11:52.657Z,-2.70
2023-11-23T00:14:35.053Z,-2.70
2023-11-23T00:17:17.059Z,-2.70
2023-11-23T00:20:00.117Z,-2.70
2023-11-23T00:22:42.791Z,-2.70
2023-11-23T00:25:25.679Z,-2.70
2023-11-23T00:28:08.230Z,-2.60
2023-11-23T00:30:53.141Z,-2.60
2023-11-23T00:33:35.808Z,-2.60
2023-11-23T00:36:18.194Z,-2.60
2023-11-23T00:39:00.334Z,-2.60
2023-11-23T00:41:42.899Z,-2.50
2023-11-23T00:44:24.969Z,-2.50
2023-11-23T00:47:07.824Z,-2.50
2023-11-23T00:49:52.101Z,-2.40
2023-11-23T00:52:34.546Z,-2.50
2023-11-23T00:55:16.608Z,-2.40
2023-11-23T00:57:59.014Z,-2.40
2023-11-23T01:00:41.199Z,-2.40
2023-11-23T01:03:25.874Z,-2.40
2023-11-23T01:06:08.515Z,-2.30
2023-11-23T01:08:51.014Z,-2.30
2023-11-23T01:11:33.544Z,-2.30
2023-11-23T01:14:15.915Z,-2.20
2023-11-23T01:16:58.122Z,-2.20
2023-11-23T01:19:40.428Z,-2.20
2023-11-23T01:22:22.470Z,-2.20
2023-11-23T01:25:09.448Z,-2.20
2023-11-23T01:27:51.496Z,-2.20
2023-11-23T01:30:34.297Z,-2.20
2023-11-23T01:33:18.562Z,-2.10
2023-11-23T01:36:01.457Z,-2.10
2023-11-23T01:38:43.568Z,-2.10
2023-11-23T01:41:26.020Z,-2.00
2023-11-23T01:44:08.135Z,-2.00
2023-11-23T01:46:50.466Z,-2.00
2023-11-23T01:49:35.461Z,-2.00
2023-11-23T01:52:17.829Z,-2.00
2023-11-23T01:54:59.933Z,-1.90
2023-11-23T01:57:44.571Z,-1.90
2023-11-23T02:00:26.947Z,-1.90
2023-11-23T02:03:11.859Z,-1.90
2023-11-23T02:05:54.295Z,-1.90
2023-11-23T02:08:36.873Z,-1.80
2023-11-23T02:11:19.058Z,-1.80
2023-11-23T02:14:01.453Z,-1.80
2023-11-23T02:16:43.474Z,-1.80
2023-11-23T02:19:25.786Z,-1.80
2023-11-23T02:22:08.406Z,-1.80
2023-11-23T02:24:50.730Z,-1.70
2023-11-23T02:27:33.616Z,-1.80
2023-11-23T02:30:15.993Z,-1.70
2023-11-23T02:32:58.333Z,-1.70
2023-11-23T02:35:40.854Z,-1.70
2023-11-23T02:38:23.014Z,-1.70
2023-11-23T02:41:08.438Z,-1.70
2023-11-23T02:43:50.688Z,-1.70
2023-11-23T02:46:33.137Z,-1.60
2023-11-23T02:49:15.866Z,-1.60
2023-11-23T02:52:01.039Z,-1.60
2023-11-23T02:54:43.934Z,-1.60
2023-11-23T02:57:26.551Z,-1.60
2023-11-23T03:00:09.135Z,-1.60
2023-11-23T03:02:51.835Z,-1.50
2023-11-23T03:05:33.950Z,-1.50
2023-11-23T03:08:16.904Z,-1.50
2023-11-23T03:10:58.921Z,-1.40
2023-11-23T03:13:42.152Z,-1.40
2023-11-23T03:16:25.623Z,-1.30
2023-11-23T03:19:07.963Z,-1.30
2023-11-23T03:21:50.178Z,-1.30
2023-11-23T03:24:33.594Z,-1.30
2023-11-23T03:27:16.333Z,-1.30
2023-11-23T03:29:59.682Z,-1.30
2023-11-23T03:32:41.768Z,-1.20
2023-11-23T03:35:27.815Z,-1.20
2023-11-23T03:38:09.927Z,-1.20
2023-11-23T03:40:52.236Z,-1.10
2023-11-23T03:43:34.254Z,-1.10
2023-11-23T03:46:16.601Z,-1.00
2023-11-23T03:48:58.635Z,-1.00
2023-11-23T03:51:41.043Z,-1.00
2023-11-23T03:54:23.110Z,-0.90
2023-11-23T03:57:06.069Z,-0.90
2023-11-23T03:59:48.317Z,-0.90
2023-11-23T04:02:30.659Z,-0.90
2023-11-23T04:05:15.994Z,-0.80
2023-11-23T04:07:58.728Z,-0.80
2023-11-23T04:10:41.045Z,-0.80
2023-11-23T04:13:23.461Z,-0.80
2023-11-23T04:16:05.737Z,-0.80
2023-11-23T04:18:48.837Z,-0.80
2023-11-23T04:21:31.019Z,-0.80
2023-11-23T04:24:13.376Z,-0.70
2023-11-23T04:26:55.622Z,-0.70
2023-11-23T04:29:38.016Z,-0.70
2023-11-23T04:32:20.098Z,-0.60
2023-11-23T04:35:03.041Z,-0.60
2023-11-23T04:37:46.366Z,-0.60
2023-11-23T04:40:28.653Z,-0.50
2023-11-23T04:43:11.077Z,-0.50
2023-11-23T04:45:53.495Z,-0.50
2023-11-23T04:48:35.605Z,-0.40
2023-11-23T04:51:18.129Z,-0.40
2023-11-23T04:54:00.416Z,-0.40
2023-11-23T04:56:42.741Z,-0.30
2023-11-23T04:59:25.697Z,-0.40
2023-11-23T05:02:08.858Z,-0.30
2023-11-23T05:04:51.686Z,-0.30
2023-11-23T05:07:34.020Z,-0.20
2023-11-23T05:10:17.271Z,-0.20
2023-11-23T05:12:59.925Z,-0.20
2023-11-23T05:15:42.065Z,-0.10
2023-11-23T05:18:24.571Z,-0.10
2023-11-23T05:21:06.845Z,0.00
2023-11-23T05:23:49.373Z,0.00
2023-11-23T05:26:32.015Z,0.00
2023-11-23T05:29:14.371Z,0.00
2023-11-23T05:31:56.872Z,0.10
2023-11-23T05:34:39.282Z,0.10
2023-11-23T05:37:21.654Z,0.20
2023-11-23T05:40:04.560Z,0.20
2023-11-23T05:42:57.458Z,0.20
2023-11-23T05:45:43.911Z,0.20
2023-11-23T05:48:26.200Z,0.30
2023-11-23T05:51:08.642Z,0.30
2023-11-23T05:53:51.284Z,0.30
2023-11-23T05:56:34.959Z,0.30
2023-11-23T05:59:17.114Z,0.30
2023-11-23T06:01:59.507Z,0.30
2023-11-23T06:04:46.395Z,0.30
2023-11-23T06:07:28.970Z,0.30
2023-11-23T06:10:12.996Z,0.30
2023-11-23T06:12:55.404Z,0.40
2023-11-23T06:15:37.690Z,0.40
2023-11-23T06:18:22.778Z,0.40
2023-11-23T06:21:05.164Z,0.40
2023-11-23T06:23:48.586Z,0.40
2023-11-23T06:26:30.962Z,0.40
2023-11-23T06:29:13.536Z,0.40
2023-11-23T06:32:00.521Z,0.40
2023-11-23T06:34:44.964Z,0.40
2023-11-23T06:37:27.182Z,0.50
2023-11-23T06:40:09.807Z,0.50
2023-11-23T06:42:52.308Z,0.50
2023-11-23T06:45:34.854Z,0.50
2023-11-23T06:48:17.117Z,0.60
2023-11-23T06:50:59.566Z,0.60
2023-11-23T06:53:46.327Z,0.60
2023-11-23T06:56:28.762Z,0.60
2023-11-23T06:59:10.983Z,0.60
2023-11-23T07:01:53.557Z,0.70
2023-11-23T07:04:39.957Z,0.80
2023-11-23T07:07:22.382Z,0.80
2023-11-23T07:10:07.466Z,0.80
2023-11-23T07:12:49.941Z,0.80
2023-11-23T07:15:32.155Z,0.80
2023-11-23T07:18:15.584Z,0.80
2023-11-23T07:20:58.801Z,0.80
2023-11-23T07:23:41.625Z,0.80
2023-11-23T07:26:23.768Z,0.80
2023-11-23T07:29:06.156Z,0.70
2023-11-23T07:31:49.390Z,0.70
2023-11-23T07:34:31.709Z,0.70
2023-11-23T07:37:13.746Z,0.70
2023-11-23T07:39:56.334Z,0.80
2023-11-23T07:42:38.587Z,0.70
2023-11-23T07:45:21.031Z,0.70
2023-11-23T07:48:10.319Z,0.70
2023-11-23T07:50:53.097Z,0.70
2023-11-23T07:53:35.175Z,0.70
2023-11-23T07:56:17.925Z,0.70
2023-11-23T07:59:00.651Z,0.80
2023-11-23T08:01:43.204Z,0.80
2023-11-23T08:04:25.581Z,0.80
2023-11-23T08:07:08.094Z,0.80
2023-11-23T08:09:50.259Z,0.80
2023-11-23T08:12:33.349Z,0.90
2023-11-23T08:15:15.638Z,0.90
2023-11-23T08:18:04.966Z,1.00
2023-11-23T08:20:50.107Z,1.10
2023-11-23T08:23:32.668Z,1.20
2023-11-23T08:26:15.262Z,1.20
2023-11-23T08:28:58.289Z,1.30
2023-11-23T08:31:42.336Z,1.40
2023-11-23T08:34:25.379Z,1.40
2023-11-23T08:37:07.553Z,1.40
2023-11-23T08:39:53.320Z,1.50
2023-11-23T08:42:54.517Z,1.50
2023-11-23T08:45:36.970Z,1.60
2023-11-23T08:48:23.421Z,1.60
2023-11-23T08:51:06.087Z,1.60
2023-11-23T08:53:48.210Z,1.60
2023-11-23T08:56:31.003Z,1.70
2023-11-23T08:59:13.583Z,1.70
2023-11-23T09:02:02.034Z,1.70
2023-11-23T09:04:47.883Z,1.70
2023-11-23T09:07:30.412Z,1.70
2023-11-23T09:10:13.745Z,1.80
2023-11-23T09:12:56.278Z,1.80
2023-11-23T09:15:38.394Z,1.90
2023-11-23T09:18:22.731Z,1.90
2023-11-23T09:21:05.050Z,1.90
2023-11-23T09:23:47.600Z,2.00
2023-11-23T09:26:29.754Z,2.00
2023-11-23T09:29:12.201Z,2.10
2023-11-23T09:31:54.338Z,2.10
2023-11-23T09:34:36.845Z,2.20
2023-11-23T09:37:18.940Z,2.20
2023-11-23T09:40:03.964Z,2.20
2023-11-23T09:42:49.847Z,2.20
2023-11-23T09:45:32.746Z,2.20
2023-11-23T09:48:15.694Z,2.30
2023-11-23T09:50:58.282Z,2.30
2023-11-23T09:53:43.108Z,2.30
2023-11-23T09:56:28.679Z,2.30
2023-11-23T09:59:11.145Z,2.30
2023-11-23T10:01:56.178Z,2.30
2023-11-23T10:04:38.537Z,2.30
2023-11-23T10:07:21.507Z,2.40
2023-11-23T10:10:06.622Z,2.40
2023-11-23T10:12:50.673Z,2.40
2023-11-23T10:15:32.970Z,2.40
2023-11-23T10:18:15.619Z,2.40
2023-11-23T10:20:57.971Z,2.40
2023-11-23T10:23:41.654Z,2.50
2023-11-23T10:26:24.350Z,2.50
2023-11-23T10:29:06.928Z,2.60
2023-11-23T10:31:49.139Z,2.60
2023-11-23T10:34:32.630Z,2.60
2023-11-23T10:37:17.726Z,2.70
2023-11-23T10:40:00.202Z,2.70
2023-11-23T10:42:42.461Z,2.80
2023-11-23T10:45:25.872Z,2.80
2023-11-23T10:48:09.525Z,2.90
2023-11-23T10:50:52.089Z,3.00
2023-11-23T10:53:34.376Z,3.00
2023-11-23T10:56:19.189Z,3.10
2023-11-23T10:59:06.816Z,3.20
2023-11-23T11:01:51.775Z,3.20
2023-11-23T11:04:34.290Z,3.30
2023-11-23T11:07:17.187Z,3.30
2023-11-23T11:10:02.069Z,3.30
2023-11-23T11:12:46.960Z,3.40
2023-11-23T11:15:29.105Z,3.40
2023-11-23T11:18:12.274Z,3.60
2023-11-23T11:21:13.891Z,3.60
2023-11-23T11:23:58.448Z,3.70
2023-11-23T11:26:42.878Z,3.80
2023-11-23T11:29:25.232Z,3.80
2023-11-23T11:32:11.621Z,3.80
2023-11-23T11:35:04.808Z,3.90
2023-11-23T11:37:48.283Z,3.90
2023-11-23T11:40:30.767Z,4.00
2023-11-23T11:43:16.136Z,4.00
2023-11-23T11:45:58.559Z,4.10
2023-11-23T11:48:40.689Z,4.20
2023-11-23T11:51:23.182Z,4.20
2023-11-23T11:54:06.770Z,4.20
2023-11-23T11:56:52.512Z,4.30
2023-11-23T11:59:37.321Z,4.30
2023-11-23T12:02:20.464Z,4.30
2023-11-23T12:05:02.876Z,4.30
2023-11-23T12:07:52.371Z,4.30
2023-11-23T12:10:41.224Z,4.40
2023-11-23T12:13:24.035Z,4.40
2023-11-23T12:16:06.756Z,4.40
2023-11-23T12:18:50.369Z,4.50
2023-11-23T12:21:33.113Z,4.40
2023-11-23T12:24:19.118Z,4.50
2023-11-23T12:27:01.343Z,4.50
2023-11-23T12:29:45.021Z,4.50
2023-11-23T12:32:28.553Z,4.60
2023-11-23T12:35:11.081Z,4.60
2023-11-23T12:37:53.819Z,4.60
2023-11-23T12:40:36.445Z,4.60
2023-11-23T12:43:19.065Z,4.60
2023-11-23T12:46:01.749Z,4.70
2023-11-23T12:48:44.148Z,4.70
2023-11-23T12:51:26.859Z,4.70
2023-11-23T12:54:09.390Z,4.70
2023-11-23T12:56:52.709Z,4.80
2023-11-23T12:59:34.888Z,4.80
2023-11-23T13:02:17.583Z,4.90
2023-11-23T13:04:59.923Z,4.90
2023-11-23T13:07:42.603Z,4.90
2023-11-23T13:10:24.776Z,4.90
2023-11-23T13:13:07.448Z,4.90
2023-11-23T13:15:49.636Z,4.90
2023-11-23T13:18:50.849Z,4.90
2023-11-23T13:21:38.153Z,4.90
2023-11-23T13:24:21.940Z,5.00
2023-11-23T13:27:04.503Z,5.00
2023-11-23T13:29:46.979Z,5.00
2023-11-23T13:32:29.056Z,5.00
2023-11-23T13:35:12.133Z,5.00
2023-11-23T13:37:54.400Z,5.00
2023-11-23T13:40:37.230Z,5.00
2023-11-23T13:43:19.843Z,5.00
2023-11-23T13:46:02.686Z,5.00
2023-11-23T13:48:47.431Z,5.00
2023-11-23T13:51:32.195Z,5.10
2023-11-23T13:54:16.156Z,5.10
2023-11-23T13:56:59.262Z,5.10
2023-11-23T13:59:41.576Z,5.10
2023-11-23T14:02:24.388Z,5.10
2023-11-23T14:05:07.675Z,5.20
2023-11-23T14:07:50.788Z,5.20
2023-11-23T14:10:33.456Z,5.10
2023-11-23T14:13:16.976Z,5.20
2023-11-23T14:15:59.302Z,5.20
2023-11-23T14:18:43.243Z,5.20
2023-11-23T14:21:28.429Z,5.30
2023-11-23T14:24:12.461Z,5.30
2023-11-23T14:26:54.720Z,5.30
2023-11-23T14:29:37.253Z,5.30
2023-11-23T14:32:19.481Z,5.30
2023-11-23T14:35:02.324Z,5.30
2023-11-23T14:37:44.760Z,5.30
2023-11-23T14:40:27.472Z,5.30
2023-11-23T14:43:12.072Z,5.30
2023-11-23T14:45:57.284Z,5.30
2023-11-23T14:48:39.840Z,5.30
2023-11-23T14:51:25.180Z,5.20
2023-11-23T14:54:12.349Z,5.10
2023-11-23T14:56:56.489Z,5.00
2023-11-23T14:59:42.191Z,4.90
2023-11-23T15:02:25.173Z,4.90
2023-11-23T15:05:07.987Z,4.70
2023-11-23T15:07:53.795Z,4.70
2023-11-23T15:10:36.451Z,4.60
2023-11-23T15:13:25.896Z,4.50
2023-11-23T15:16:15.538Z,4.50
2023-11-23T15:18:58.497Z,4.50
2023-11-23T15:21:43.676Z,4.50
2023-11-23T15:24:28.263Z,4.50
2023-11-23T15:27:11.964Z,4.50
2023-11-23T15:29:55.134Z,4.50
2023-11-23T15:32:39.304Z,4.40
2023-11-23T15:35:22.084Z,4.40
2023-11-23T15:38:04.321Z,4.50
2023-11-23T15:40:46.845Z,4.50
2023-11-23T15:43:29.007Z,4.50
2023-11-23T15:46:13.046Z,4.50
2023-11-23T15:48:55.419Z,4.50
2023-11-23T15:51:38.323Z,4.50
2023-11-23T15:54:20.820Z,4.50
2023-11-23T15:57:03.773Z,4.50
2023-11-23T15:59:46.003Z,4.50
2023-11-23T16:02:28.627Z,4.50
2023-11-23T16:05:14.523Z,4.50
2023-11-23T16:07:59.702Z,4.50
2023-11-23T16:10:42.680Z,4.50
2023-11-23T16:13:25.136Z,4.50
2023-11-23T16:16:07.548Z,4.50
2023-11-23T16:18:50.005Z,4.50
2023-11-23T16:21:32.428Z,4.50
2023-11-23T16:24:15.291Z,4.50
2023-11-23T16:26:57.658Z,4.50
2023-11-23T16:29:40.843Z,4.50
2023-11-23T16:32:24.619Z,4.50
2023-11-23T16:35:07.660Z,4.50
2023-11-23T16:37:51.560Z,4.50
2023-11-23T16:40:35.991Z,4.50
2023-11-23T16:43:19.163Z,4.50
2023-11-23T16:46:01.625Z,4.50
2023-11-23T16:48:43.915Z,4.50
2023-11-23T16:51:26.527Z,4.50
2023-11-23T16:54:10.478Z,4.50
2023-11-23T16:56:53.178Z,4.50
2023-11-23T16:59:35.351Z,4.50
2023-11-23T17:02:18.050Z,4.50
2023-11-23T17:05:01.583Z,4.60
2023-11-23T17:07:44.390Z,4.60
2023-11-23T17:10:28.751Z,4.60
2023-11-23T17:13:13.260Z,4.60
2023-11-23T17:15:55.444Z,4.60
2023-11-23T17:18:37.966Z,4.60
2023-11-23T17:21:21.317Z,4.60
2023-11-23T17:24:04.855Z,4.60
2023-11-23T17:26:47.605Z,4.70
2023-11-23T17:29:30.148Z,4.70
2023-11-23T17:32:12.252Z,4.70
2023-11-23T17:34:54.687Z,4.70
2023-11-23T17:37:37.189Z,4.70
2023-11-23T17:40:20.328Z,4.70
2023-11-23T17:43:02.466Z,4.70
2023-11-23T17:45:48.376Z,4.70
2023-11-23T17:48:30.816Z,4.70
2023-11-23T17:51:14.753Z,4.70
2023-11-23T17:53:57.145Z,4.70
2023-11-23T17:56:40.226Z,4.70
2023-11-23T17:59:34.071Z,4.70
2023-11-23T18:02:23.663Z,4.80
2023-11-23T18:05:06.024Z,4.80
2023-11-23T18:07:48.785Z,4.80
2023-11-23T18:10:31.341Z,4.80
2023-11-23T18:13:14.012Z,4.90
2023-11-23T18:15:56.472Z,4.90
2023-11-23T18:18:39.179Z,4.90
2023-11-23T18:21:22.045Z,4.90
2023-11-23T18:24:05.915Z,5.00
2023-11-23T18:26:48.014Z,5.00
2023-11-23T18:29:30.674Z,5.00
2023-11-23T18:32:15.201Z,5.00
2023-11-23T18:34:57.796Z,5.00
2023-11-23T18:37:40.085Z,5.10
2023-11-23T18:40:25.577Z,5.10
2023-11-23T18:43:08.555Z,5.10
2023-11-23T18:45:51.146Z,5.20
2023-11-23T18:48:34.616Z,5.20
2023-11-23T18:51:17.736Z,5.30
2023-11-23T18:54:02.202Z,5.30
2023-11-23T18:57:30.280Z,5.30
2023-11-23T19:01:09.870Z,5.30
2023-11-23T19:03:53.246Z,5.40
2023-11-23T19:06:35.652Z,5.40
2023-11-23T19:09:18.312Z,5.40
2023-11-23T19:12:00.712Z,5.50
2023-11-23T19:14:43.680Z,5.50
2023-11-23T19:17:27.018Z,5.50
2023-11-23T19:20:11.220Z,5.50
2023-11-23T19:22:53.709Z,5.50
2023-11-23T19:25:36.702Z,5.50
2023-11-23T19:28:19.201Z,5.60
2023-11-23T19:31:06.472Z,5.60
2023-11-23T19:33:50.785Z,5.70
2023-11-23T19:36:35.192Z,5.70
2023-11-23T19:39:20.058Z,5.70
2023-11-23T19:42:03.863Z,5.80
2023-11-23T19:44:47.203Z,5.80
2023-11-23T19:47:30.866Z,5.80
2023-11-23T19:50:13.716Z,5.90
2023-11-23T19:52:58.094Z,5.90
2023-11-23T19:55:40.403Z,5.90
2023-11-23T19:58:23.224Z,6.00
2023-11-23T20:01:05.916Z,6.00
2023-11-23T20:03:48.627Z,6.00
2023-11-23T20:06:31.005Z,6.10
2023-11-23T20:09:14.622Z,6.10
2023-11-23T20:12:00.411Z,6.20
2023-11-23T20:14:43.106Z,6.20
2023-11-23T20:17:26.818Z,6.20
2023-11-23T20:20:11.420Z,6.20
2023-11-23T20:22:53.762Z,6.30
2023-11-23T20:25:36.343Z,6.30
2023-11-23T20:28:18.739Z,6.20
2023-11-23T20:31:01.720Z,6.20
2023-11-23T20:33:44.016Z,6.20
2023-11-23T20:36:26.724Z,6.10
2023-11-23T20:39:10.591Z,6.10
2023-11-23T20:41:54.127Z,6.00
2023-11-23T20:44:36.411Z,6.00
2023-11-23T20:47:20.171Z,6.00
2023-11-23T20:50:02.664Z,5.90
2023-11-23T20:52:45.272Z,5.90
2023-11-23T20:55:27.867Z,5.90
2023-11-23T20:58:11.495Z,5.90
2023-11-23T21:00:54.297Z,5.90
2023-11-23T21:03:37.255Z,5.90
2023-11-23T21:06:23.433Z,5.80
2023-11-23T21:09:09.449Z,5.80
2023-11-23T21:11:55.400Z,5.80
2023-11-23T21:14:38.203Z,5.80
2023-11-23T21:17:20.975Z,5.90
2023-11-23T21:20:09.811Z,5.90
2023-11-23T21:22:52.203Z,5.90
2023-11-23T21:25:36.512Z,5.90
2023-11-23T21:28:20.430Z,5.90
2023-11-23T21:31:03.364Z,5.60
2023-11-23T21:33:45.947Z,4.70
2023-11-23T21:36:28.702Z,4.50
2023-11-23T21:39:12.785Z,4.50
2023-11-23T21:41:55.512Z,4.50
2023-11-23T21:44:40.832Z,4.60
2023-11-23T21:47:23.578Z,4.70
2023-11-23T21:50:07.887Z,4.80
2023-11-23T21:52:52.695Z,4.80
2023-11-23T21:55:38.590Z,4.80
2023-11-23T21:58:21.495Z,4.90
2023-11-23T22:01:03.832Z,4.80
2023-11-23T22:03:50.763Z,4.90
2023-11-23T22:06:34.132Z,4.90
2023-11-23T22:09:17.163Z,4.90
2023-11-23T22:11:59.989Z,4.90
2023-11-23T22:14:42.544Z,4.90
2023-11-23T22:17:26.238Z,4.90
2023-11-23T22:20:09.629Z,4.90
2023-11-23T22:22:52.246Z,4.80
2023-11-23T22:25:35.261Z,4.80
2023-11-23T22:28:18.216Z,4.90
2023-11-23T22:31:02.666Z,5.00
2023-11-23T22:33:47.206Z,5.10
2023-11-23T22:36:30.811Z,5.10
2023-11-23T22:39:14.751Z,5.10
2023-11-23T22:41:57.668Z,5.10
2023-11-23T22:44:40.127Z,5.10
2023-11-23T22:47:22.893Z,5.10
2023-11-23T22:50:07.200Z,5.10
2023-11-23T22:52:49.753Z,5.10
2023-11-23T22:55:32.040Z,5.10
2023-11-23T22:58:14.559Z,5.00
2023-11-23T23:00:56.983Z,4.90
2023-11-23T23:03:41.168Z,4.80
2023-11-23T23:06:23.526Z,4.80
2023-11-23T23:09:09.097Z,4.80
2023-11-23T23:11:51.774Z,4.80
2023-11-23T23:14:34.654Z,4.80
2023-11-23T23:17:17.825Z,4.80
2023-11-23T23:20:01.091Z,4.90
2023-11-23T23:22:43.372Z,4.80
2023-11-23T23:25:25.989Z,4.80
2023-11-23T23:28:18.172Z,4.80
2023-11-23T23:31:04.918Z,4.80
2023-11-23T23:33:47.204Z,4.80
2023-11-23T23:36:29.805Z,4.80
2023-11-23T23:39:12.062Z,4.80
2023-11-23T23:41:55.141Z,4.80
2023-11-23T23:44:37.488Z,4.80
2023-11-23T23:47:20.167Z,4.90
2023-11-23T23:50:05.575Z,4.90
2023-11-23T23:52:48.188Z,4.90
2023-11-23T23:55:30.453Z,4.90
2023-11-23T23:58:13.250Z,4.90
